sensor_id;sensor_type;location;lat;lon;timestamp;P1;durP1;ratioP1;P2;durP2;ratioP2
2874;SDS011;1445;52.600;13.328;2022-07-25T00:02:00;3.38;;;2.55;;
2874;SDS011;1445;52.600;13.328;2022-07-25T00:04:26;3.05;;;2.35;;
2874;SDS011;1445;52.600;13.328;2022-07-25T00:06:51;3.83;;;2.30;;
2874;SDS011;1445;52.600;13.328;2022-07-25T00:09:17;2.95;;;2.42;;
2874;SDS011;1445;52.600;13.328;2022-07-25T00:11:42;2.70;;;2.50;;
2874;SDS011;1445;52.600;13.328;2022-07-25T00:14:07;4.03;;;2.50;;
2874;SDS011;1445;52.600;13.328;2022-07-25T00:16:33;2.60;;;2.40;;
2874;SDS011;1445;52.600;13.328;2022-07-25T00:18:58;3.50;;;2.35;;
2874;SDS011;1445;52.600;13.328;2022-07-25T00:21:23;3.45;;;2.22;;
2874;SDS011;1445;52.600;13.328;2022-07-25T00:23:49;2.78;;;2.30;;
2874;SDS011;1445;52.600;13.328;2022-07-25T00:26:14;2.40;;;2.20;;
2874;SDS011;1445;52.600;13.328;2022-07-25T00:28:41;2.42;;;2.13;;
2874;SDS011;1445;52.600;13.328;2022-07-25T00:31:06;2.38;;;2.13;;
2874;SDS011;1445;52.600;13.328;2022-07-25T00:33:32;2.90;;;2.20;;
2874;SDS011;1445;52.600;13.328;2022-07-25T00:35:57;2.55;;;1.98;;
2874;SDS011;1445;52.600;13.328;2022-07-25T00:38:23;2.80;;;2.20;;
2874;SDS011;1445;52.600;13.328;2022-07-25T00:40:48;3.00;;;2.17;;
2874;SDS011;1445;52.600;13.328;2022-07-25T00:43:13;3.03;;;2.15;;
2874;SDS011;1445;52.600;13.328;2022-07-25T00:45:39;2.53;;;2.30;;
2874;SDS011;1445;52.600;13.328;2022-07-25T00:48:04;2.50;;;2.30;;
2874;SDS011;1445;52.600;13.328;2022-07-25T00:50:31;2.85;;;1.98;;
2874;SDS011;1445;52.600;13.328;2022-07-25T00:52:56;2.72;;;2.10;;
2874;SDS011;1445;52.600;13.328;2022-07-25T00:55:22;4.55;;;2.20;;
2874;SDS011;1445;52.600;13.328;2022-07-25T00:57:49;2.58;;;2.15;;
2874;SDS011;1445;52.600;13.328;2022-07-25T01:00:14;2.30;;;2.10;;
2874;SDS011;1445;52.600;13.328;2022-07-25T01:02:41;3.35;;;2.15;;
2874;SDS011;1445;52.600;13.328;2022-07-25T01:05:07;2.50;;;1.98;;
2874;SDS011;1445;52.600;13.328;2022-07-25T01:07:34;2.83;;;2.17;;
2874;SDS011;1445;52.600;13.328;2022-07-25T01:10:00;2.67;;;1.90;;
2874;SDS011;1445;52.600;13.328;2022-07-25T01:12:26;3.20;;;1.83;;
2874;SDS011;1445;52.600;13.328;2022-07-25T01:14:52;3.00;;;2.10;;
2874;SDS011;1445;52.600;13.328;2022-07-25T01:17:17;2.30;;;2.10;;
2874;SDS011;1445;52.600;13.328;2022-07-25T01:19:43;2.67;;;2.00;;
2874;SDS011;1445;52.600;13.328;2022-07-25T01:22:10;3.70;;;1.90;;
2874;SDS011;1445;52.600;13.328;2022-07-25T01:24:35;2.65;;;1.70;;
2874;SDS011;1445;52.600;13.328;2022-07-25T01:27:02;3.17;;;2.40;;
2874;SDS011;1445;52.600;13.328;2022-07-25T01:29:28;2.20;;;2.00;;
2874;SDS011;1445;52.600;13.328;2022-07-25T01:31:54;2.50;;;2.28;;
2874;SDS011;1445;52.600;13.328;2022-07-25T01:34:19;2.83;;;2.03;;
2874;SDS011;1445;52.600;13.328;2022-07-25T01:36:44;2.28;;;1.90;;
2874;SDS011;1445;52.600;13.328;2022-07-25T01:39:10;2.88;;;1.90;;
2874;SDS011;1445;52.600;13.328;2022-07-25T01:41:35;2.88;;;2.20;;
2874;SDS011;1445;52.600;13.328;2022-07-25T01:44:01;2.35;;;2.13;;
2874;SDS011;1445;52.600;13.328;2022-07-25T01:46:27;2.60;;;1.95;;
2874;SDS011;1445;52.600;13.328;2022-07-25T01:48:52;2.50;;;2.05;;
2874;SDS011;1445;52.600;13.328;2022-07-25T01:51:18;2.60;;;2.05;;
2874;SDS011;1445;52.600;13.328;2022-07-25T01:53:43;2.10;;;1.90;;
2874;SDS011;1445;52.600;13.328;2022-07-25T01:56:08;2.53;;;2.13;;
2874;SDS011;1445;52.600;13.328;2022-07-25T01:58:34;2.58;;;2.38;;
2874;SDS011;1445;52.600;13.328;2022-07-25T02:00:59;2.47;;;2.20;;
2874;SDS011;1445;52.600;13.328;2022-07-25T02:03:24;3.70;;;2.40;;
2874;SDS011;1445;52.600;13.328;2022-07-25T02:05:57;2.88;;;2.00;;
2874;SDS011;1445;52.600;13.328;2022-07-25T02:08:24;2.88;;;2.22;;
2874;SDS011;1445;52.600;13.328;2022-07-25T02:10:49;2.58;;;2.00;;
2874;SDS011;1445;52.600;13.328;2022-07-25T02:13:15;2.30;;;2.08;;
2874;SDS011;1445;52.600;13.328;2022-07-25T02:15:40;2.58;;;2.00;;
2874;SDS011;1445;52.600;13.328;2022-07-25T02:18:06;2.33;;;2.00;;
2874;SDS011;1445;52.600;13.328;2022-07-25T02:20:31;3.05;;;2.00;;
2874;SDS011;1445;52.600;13.328;2022-07-25T02:22:57;2.83;;;2.00;;
2874;SDS011;1445;52.600;13.328;2022-07-25T02:25:22;1.90;;;1.80;;
2874;SDS011;1445;52.600;13.328;2022-07-25T02:27:48;4.05;;;1.90;;
2874;SDS011;1445;52.600;13.328;2022-07-25T02:30:13;2.92;;;2.30;;
2874;SDS011;1445;52.600;13.328;2022-07-25T02:32:39;2.58;;;2.10;;
2874;SDS011;1445;52.600;13.328;2022-07-25T02:35:05;2.50;;;2.25;;
2874;SDS011;1445;52.600;13.328;2022-07-25T02:37:31;3.10;;;2.35;;
2874;SDS011;1445;52.600;13.328;2022-07-25T02:39:56;3.65;;;2.30;;
2874;SDS011;1445;52.600;13.328;2022-07-25T02:42:21;2.90;;;1.98;;
2874;SDS011;1445;52.600;13.328;2022-07-25T02:44:47;2.50;;;2.28;;
2874;SDS011;1445;52.600;13.328;2022-07-25T02:47:12;2.88;;;2.10;;
2874;SDS011;1445;52.600;13.328;2022-07-25T02:49:38;2.30;;;2.10;;
2874;SDS011;1445;52.600;13.328;2022-07-25T02:52:03;2.45;;;2.10;;
2874;SDS011;1445;52.600;13.328;2022-07-25T02:54:28;3.25;;;2.03;;
2874;SDS011;1445;52.600;13.328;2022-07-25T02:56:54;2.55;;;2.13;;
2874;SDS011;1445;52.600;13.328;2022-07-25T02:59:19;2.40;;;2.20;;
2874;SDS011;1445;52.600;13.328;2022-07-25T03:01:44;2.25;;;2.00;;
2874;SDS011;1445;52.600;13.328;2022-07-25T03:04:10;2.47;;;2.20;;
2874;SDS011;1445;52.600;13.328;2022-07-25T03:06:35;2.80;;;2.13;;
2874;SDS011;1445;52.600;13.328;2022-07-25T03:09:00;2.25;;;1.98;;
2874;SDS011;1445;52.600;13.328;2022-07-25T03:11:26;3.03;;;2.53;;
2874;SDS011;1445;52.600;13.328;2022-07-25T03:13:51;2.80;;;2.22;;
2874;SDS011;1445;52.600;13.328;2022-07-25T03:16:16;2.45;;;2.25;;
2874;SDS011;1445;52.600;13.328;2022-07-25T03:18:42;2.60;;;2.00;;
2874;SDS011;1445;52.600;13.328;2022-07-25T03:21:07;2.45;;;2.10;;
2874;SDS011;1445;52.600;13.328;2022-07-25T03:23:33;2.28;;;1.90;;
2874;SDS011;1445;52.600;13.328;2022-07-25T03:25:58;2.55;;;2.20;;
2874;SDS011;1445;52.600;13.328;2022-07-25T03:28:24;2.83;;;2.30;;
2874;SDS011;1445;52.600;13.328;2022-07-25T03:30:49;2.40;;;2.20;;
2874;SDS011;1445;52.600;13.328;2022-07-25T03:33:15;2.50;;;2.25;;
2874;SDS011;1445;52.600;13.328;2022-07-25T03:35:41;2.60;;;1.92;;
2874;SDS011;1445;52.600;13.328;2022-07-25T03:38:06;2.25;;;1.90;;
2874;SDS011;1445;52.600;13.328;2022-07-25T03:40:31;3.17;;;2.25;;
2874;SDS011;1445;52.600;13.328;2022-07-25T03:42:57;2.72;;;2.13;;
2874;SDS011;1445;52.600;13.328;2022-07-25T03:45:22;2.28;;;2.08;;
2874;SDS011;1445;52.600;13.328;2022-07-25T03:47:48;4.65;;;2.10;;
2874;SDS011;1445;52.600;13.328;2022-07-25T03:50:13;2.40;;;2.20;;
2874;SDS011;1445;52.600;13.328;2022-07-25T03:52:38;3.20;;;2.42;;
2874;SDS011;1445;52.600;13.328;2022-07-25T03:55:05;3.00;;;2.20;;
2874;SDS011;1445;52.600;13.328;2022-07-25T03:57:31;4.65;;;2.45;;
2874;SDS011;1445;52.600;13.328;2022-07-25T03:59:56;3.50;;;2.28;;
2874;SDS011;1445;52.600;13.328;2022-07-25T04:02:22;2.20;;;1.98;;
2874;SDS011;1445;52.600;13.328;2022-07-25T04:04:47;3.85;;;2.70;;
2874;SDS011;1445;52.600;13.328;2022-07-25T04:07:12;2.92;;;2.55;;
2874;SDS011;1445;52.600;13.328;2022-07-25T04:09:38;2.95;;;2.25;;
2874;SDS011;1445;52.600;13.328;2022-07-25T04:12:03;3.10;;;1.80;;
2874;SDS011;1445;52.600;13.328;2022-07-25T04:14:29;2.30;;;2.10;;
2874;SDS011;1445;52.600;13.328;2022-07-25T04:16:54;2.50;;;2.30;;
2874;SDS011;1445;52.600;13.328;2022-07-25T04:19:20;3.35;;;2.22;;
2874;SDS011;1445;52.600;13.328;2022-07-25T04:21:45;3.80;;;2.38;;
2874;SDS011;1445;52.600;13.328;2022-07-25T04:24:10;2.50;;;2.17;;
2874;SDS011;1445;52.600;13.328;2022-07-25T04:26:36;2.88;;;2.58;;
2874;SDS011;1445;52.600;13.328;2022-07-25T04:29:01;2.95;;;2.65;;
2874;SDS011;1445;52.600;13.328;2022-07-25T04:31:27;3.05;;;2.60;;
2874;SDS011;1445;52.600;13.328;2022-07-25T04:33:53;4.47;;;2.45;;
2874;SDS011;1445;52.600;13.328;2022-07-25T04:36:18;3.33;;;2.20;;
2874;SDS011;1445;52.600;13.328;2022-07-25T04:38:44;4.43;;;2.50;;
2874;SDS011;1445;52.600;13.328;2022-07-25T04:41:09;3.53;;;2.40;;
2874;SDS011;1445;52.600;13.328;2022-07-25T04:43:35;2.92;;;2.58;;
2874;SDS011;1445;52.600;13.328;2022-07-25T04:46:00;2.78;;;2.35;;
2874;SDS011;1445;52.600;13.328;2022-07-25T04:48:25;4.00;;;2.63;;
2874;SDS011;1445;52.600;13.328;2022-07-25T04:50:51;2.80;;;2.05;;
2874;SDS011;1445;52.600;13.328;2022-07-25T04:53:17;4.35;;;2.50;;
2874;SDS011;1445;52.600;13.328;2022-07-25T04:55:42;3.10;;;2.80;;
2874;SDS011;1445;52.600;13.328;2022-07-25T04:58:07;2.95;;;2.58;;
2874;SDS011;1445;52.600;13.328;2022-07-25T05:00:33;3.35;;;3.03;;
2874;SDS011;1445;52.600;13.328;2022-07-25T05:02:58;3.58;;;2.85;;
2874;SDS011;1445;52.600;13.328;2022-07-25T05:05:24;4.30;;;2.95;;
2874;SDS011;1445;52.600;13.328;2022-07-25T05:07:53;3.42;;;3.13;;
2874;SDS011;1445;52.600;13.328;2022-07-25T05:10:21;3.88;;;2.70;;
2874;SDS011;1445;52.600;13.328;2022-07-25T05:12:47;3.17;;;2.65;;
2874;SDS011;1445;52.600;13.328;2022-07-25T05:15:12;3.22;;;2.50;;
2874;SDS011;1445;52.600;13.328;2022-07-25T05:17:38;3.75;;;2.60;;
2874;SDS011;1445;52.600;13.328;2022-07-25T05:20:03;2.70;;;2.50;;
2874;SDS011;1445;52.600;13.328;2022-07-25T05:22:29;5.45;;;2.65;;
2874;SDS011;1445;52.600;13.328;2022-07-25T05:24:55;3.72;;;2.58;;
2874;SDS011;1445;52.600;13.328;2022-07-25T05:27:20;3.13;;;2.83;;
2874;SDS011;1445;52.600;13.328;2022-07-25T05:29:46;4.05;;;2.67;;
2874;SDS011;1445;52.600;13.328;2022-07-25T05:32:11;3.72;;;2.80;;
2874;SDS011;1445;52.600;13.328;2022-07-25T05:34:37;3.63;;;2.80;;
2874;SDS011;1445;52.600;13.328;2022-07-25T05:37:02;3.15;;;2.70;;
2874;SDS011;1445;52.600;13.328;2022-07-25T05:39:27;2.92;;;2.63;;
2874;SDS011;1445;52.600;13.328;2022-07-25T05:41:53;3.00;;;2.70;;
2874;SDS011;1445;52.600;13.328;2022-07-25T05:44:19;3.10;;;2.80;;
2874;SDS011;1445;52.600;13.328;2022-07-25T05:46:44;5.72;;;2.97;;
2874;SDS011;1445;52.600;13.328;2022-07-25T05:49:10;4.75;;;3.05;;
2874;SDS011;1445;52.600;13.328;2022-07-25T05:51:36;5.70;;;3.30;;
2874;SDS011;1445;52.600;13.328;2022-07-25T05:54:01;3.50;;;3.10;;
2874;SDS011;1445;52.600;13.328;2022-07-25T05:56:27;3.70;;;3.22;;
2874;SDS011;1445;52.600;13.328;2022-07-25T05:58:54;4.47;;;3.03;;
2874;SDS011;1445;52.600;13.328;2022-07-25T06:01:19;3.83;;;3.42;;
2874;SDS011;1445;52.600;13.328;2022-07-25T06:03:45;4.35;;;3.03;;
2874;SDS011;1445;52.600;13.328;2022-07-25T06:06:11;4.53;;;3.25;;
2874;SDS011;1445;52.600;13.328;2022-07-25T06:08:37;4.25;;;3.28;;
2874;SDS011;1445;52.600;13.328;2022-07-25T06:11:03;4.68;;;3.10;;
2874;SDS011;1445;52.600;13.328;2022-07-25T06:13:30;3.20;;;2.78;;
2874;SDS011;1445;52.600;13.328;2022-07-25T06:15:55;5.13;;;3.28;;
2874;SDS011;1445;52.600;13.328;2022-07-25T06:18:21;6.55;;;3.17;;
2874;SDS011;1445;52.600;13.328;2022-07-25T06:20:48;4.38;;;3.13;;
2874;SDS011;1445;52.600;13.328;2022-07-25T06:23:14;4.40;;;3.50;;
2874;SDS011;1445;52.600;13.328;2022-07-25T06:25:40;6.70;;;3.38;;
2874;SDS011;1445;52.600;13.328;2022-07-25T06:28:06;5.32;;;3.50;;
2874;SDS011;1445;52.600;13.328;2022-07-25T06:30:31;4.80;;;3.50;;
2874;SDS011;1445;52.600;13.328;2022-07-25T06:32:57;3.72;;;3.20;;
2874;SDS011;1445;52.600;13.328;2022-07-25T06:35:22;5.47;;;3.38;;
2874;SDS011;1445;52.600;13.328;2022-07-25T06:37:48;7.78;;;3.15;;
2874;SDS011;1445;52.600;13.328;2022-07-25T06:40:13;4.72;;;3.47;;
2874;SDS011;1445;52.600;13.328;2022-07-25T06:42:42;6.72;;;3.50;;
2874;SDS011;1445;52.600;13.328;2022-07-25T06:45:09;5.30;;;3.40;;
2874;SDS011;1445;52.600;13.328;2022-07-25T06:47:36;4.10;;;3.70;;
2874;SDS011;1445;52.600;13.328;2022-07-25T06:50:06;7.82;;;3.78;;
2874;SDS011;1445;52.600;13.328;2022-07-25T06:52:34;3.95;;;3.58;;
2874;SDS011;1445;52.600;13.328;2022-07-25T06:55:00;4.53;;;3.58;;
2874;SDS011;1445;52.600;13.328;2022-07-25T06:57:27;5.40;;;3.78;;
2874;SDS011;1445;52.600;13.328;2022-07-25T06:59:52;5.30;;;3.60;;
2874;SDS011;1445;52.600;13.328;2022-07-25T07:02:18;6.55;;;3.60;;
2874;SDS011;1445;52.600;13.328;2022-07-25T07:04:43;5.78;;;4.07;;
2874;SDS011;1445;52.600;13.328;2022-07-25T07:07:08;4.20;;;3.80;;
2874;SDS011;1445;52.600;13.328;2022-07-25T07:09:34;5.15;;;4.13;;
2874;SDS011;1445;52.600;13.328;2022-07-25T07:12:00;6.95;;;4.35;;
2874;SDS011;1445;52.600;13.328;2022-07-25T07:14:25;5.78;;;4.40;;
2874;SDS011;1445;52.600;13.328;2022-07-25T07:16:51;6.22;;;3.90;;
2874;SDS011;1445;52.600;13.328;2022-07-25T07:19:16;7.30;;;4.38;;
2874;SDS011;1445;52.600;13.328;2022-07-25T07:21:42;8.57;;;4.40;;
2874;SDS011;1445;52.600;13.328;2022-07-25T07:24:07;4.97;;;4.40;;
2874;SDS011;1445;52.600;13.328;2022-07-25T07:26:33;5.00;;;4.20;;
2874;SDS011;1445;52.600;13.328;2022-07-25T07:28:59;5.10;;;4.60;;
2874;SDS011;1445;52.600;13.328;2022-07-25T07:31:24;5.03;;;4.50;;
2874;SDS011;1445;52.600;13.328;2022-07-25T07:33:50;5.05;;;4.53;;
2874;SDS011;1445;52.600;13.328;2022-07-25T07:36:15;8.60;;;4.65;;
2874;SDS011;1445;52.600;13.328;2022-07-25T07:38:41;6.43;;;4.80;;
2874;SDS011;1445;52.600;13.328;2022-07-25T07:41:08;5.20;;;4.40;;
2874;SDS011;1445;52.600;13.328;2022-07-25T07:43:34;5.53;;;4.20;;
2874;SDS011;1445;52.600;13.328;2022-07-25T07:45:59;7.57;;;5.00;;
2874;SDS011;1445;52.600;13.328;2022-07-25T07:48:25;5.60;;;5.00;;
2874;SDS011;1445;52.600;13.328;2022-07-25T07:50:54;5.85;;;5.03;;
2874;SDS011;1445;52.600;13.328;2022-07-25T07:53:20;5.43;;;4.75;;
2874;SDS011;1445;52.600;13.328;2022-07-25T07:55:46;5.68;;;5.03;;
2874;SDS011;1445;52.600;13.328;2022-07-25T07:58:19;6.72;;;5.10;;
2874;SDS011;1445;52.600;13.328;2022-07-25T08:00:48;6.32;;;5.00;;
2874;SDS011;1445;52.600;13.328;2022-07-25T08:03:16;5.45;;;4.82;;
2874;SDS011;1445;52.600;13.328;2022-07-25T08:05:44;6.13;;;4.93;;
2874;SDS011;1445;52.600;13.328;2022-07-25T08:08:10;5.03;;;4.53;;
2874;SDS011;1445;52.600;13.328;2022-07-25T08:10:38;5.90;;;5.10;;
2874;SDS011;1445;52.600;13.328;2022-07-25T08:15:38;6.70;;;5.25;;
2874;SDS011;1445;52.600;13.328;2022-07-25T08:18:04;6.55;;;5.28;;
2874;SDS011;1445;52.600;13.328;2022-07-25T08:20:29;6.40;;;5.22;;
2874;SDS011;1445;52.600;13.328;2022-07-25T08:22:55;8.00;;;4.93;;
2874;SDS011;1445;52.600;13.328;2022-07-25T08:25:20;5.47;;;4.90;;
2874;SDS011;1445;52.600;13.328;2022-07-25T08:27:46;5.97;;;4.93;;
2874;SDS011;1445;52.600;13.328;2022-07-25T08:30:13;7.43;;;5.03;;
2874;SDS011;1445;52.600;13.328;2022-07-25T08:35:17;5.88;;;5.28;;
2874;SDS011;1445;52.600;13.328;2022-07-25T08:37:47;5.53;;;5.05;;
2874;SDS011;1445;52.600;13.328;2022-07-25T08:40:13;7.18;;;5.70;;
2874;SDS011;1445;52.600;13.328;2022-07-25T08:42:40;6.10;;;5.50;;
2874;SDS011;1445;52.600;13.328;2022-07-25T08:45:07;7.32;;;5.55;;
2874;SDS011;1445;52.600;13.328;2022-07-25T08:47:35;6.35;;;5.75;;
2874;SDS011;1445;52.600;13.328;2022-07-25T08:50:05;11.43;;;6.20;;
2874;SDS011;1445;52.600;13.328;2022-07-25T08:52:36;7.38;;;5.72;;
2874;SDS011;1445;52.600;13.328;2022-07-25T08:55:04;8.35;;;5.88;;
2874;SDS011;1445;52.600;13.328;2022-07-25T08:57:31;6.68;;;6.00;;
2874;SDS011;1445;52.600;13.328;2022-07-25T08:59:58;8.50;;;5.75;;
2874;SDS011;1445;52.600;13.328;2022-07-25T09:02:26;6.22;;;5.63;;
2874;SDS011;1445;52.600;13.328;2022-07-25T09:04:53;6.55;;;5.88;;
2874;SDS011;1445;52.600;13.328;2022-07-25T09:07:31;7.75;;;6.00;;
2874;SDS011;1445;52.600;13.328;2022-07-25T09:10:12;6.63;;;6.00;;
2874;SDS011;1445;52.600;13.328;2022-07-25T09:12:52;6.73;;;5.97;;
2874;SDS011;1445;52.600;13.328;2022-07-25T09:17:58;7.43;;;6.68;;
2874;SDS011;1445;52.600;13.328;2022-07-25T09:23:14;7.95;;;7.15;;
2874;SDS011;1445;52.600;13.328;2022-07-25T09:25:51;7.88;;;7.07;;
2874;SDS011;1445;52.600;13.328;2022-07-25T09:28:17;7.10;;;6.50;;
2874;SDS011;1445;52.600;13.328;2022-07-25T09:30:53;7.50;;;6.70;;
2874;SDS011;1445;52.600;13.328;2022-07-25T09:33:21;7.40;;;6.68;;
2874;SDS011;1445;52.600;13.328;2022-07-25T09:35:48;7.50;;;6.70;;
2874;SDS011;1445;52.600;13.328;2022-07-25T09:38:14;7.47;;;6.68;;
2874;SDS011;1445;52.600;13.328;2022-07-25T09:40:51;7.65;;;6.88;;
2874;SDS011;1445;52.600;13.328;2022-07-25T09:43:20;7.90;;;7.20;;
2874;SDS011;1445;52.600;13.328;2022-07-25T09:45:50;7.32;;;6.57;;
2874;SDS011;1445;52.600;13.328;2022-07-25T09:48:19;7.97;;;6.72;;
2874;SDS011;1445;52.600;13.328;2022-07-25T09:50:45;11.23;;;7.18;;
2874;SDS011;1445;52.600;13.328;2022-07-25T09:53:11;8.48;;;7.13;;
2874;SDS011;1445;52.600;13.328;2022-07-25T09:55:36;7.40;;;6.80;;
2874;SDS011;1445;52.600;13.328;2022-07-25T09:58:02;8.57;;;6.68;;
2874;SDS011;1445;52.600;13.328;2022-07-25T10:00:27;7.57;;;6.97;;
2874;SDS011;1445;52.600;13.328;2022-07-25T10:08:34;8.18;;;7.20;;
2874;SDS011;1445;52.600;13.328;2022-07-25T10:11:00;8.02;;;7.22;;
2874;SDS011;1445;52.600;13.328;2022-07-25T10:13:32;8.48;;;7.57;;
2874;SDS011;1445;52.600;13.328;2022-07-25T10:15:59;8.98;;;6.88;;
2874;SDS011;1445;52.600;13.328;2022-07-25T10:18:45;7.70;;;7.10;;
2874;SDS011;1445;52.600;13.328;2022-07-25T10:21:13;8.55;;;7.53;;
2874;SDS011;1445;52.600;13.328;2022-07-25T10:23:39;7.70;;;7.00;;
2874;SDS011;1445;52.600;13.328;2022-07-25T10:26:08;7.63;;;6.90;;
2874;SDS011;1445;52.600;13.328;2022-07-25T10:28:42;8.02;;;7.15;;
2874;SDS011;1445;52.600;13.328;2022-07-25T10:34:04;8.10;;;7.40;;
2874;SDS011;1445;52.600;13.328;2022-07-25T10:36:42;9.27;;;7.43;;
2874;SDS011;1445;52.600;13.328;2022-07-25T10:39:12;7.80;;;7.10;;
2874;SDS011;1445;52.600;13.328;2022-07-25T10:41:40;7.95;;;7.20;;
2874;SDS011;1445;52.600;13.328;2022-07-25T10:44:10;8.60;;;7.38;;
2874;SDS011;1445;52.600;13.328;2022-07-25T10:46:37;7.55;;;6.65;;
2874;SDS011;1445;52.600;13.328;2022-07-25T10:49:04;8.05;;;7.35;;
2874;SDS011;1445;52.600;13.328;2022-07-25T10:51:32;8.20;;;7.47;;
2874;SDS011;1445;52.600;13.328;2022-07-25T10:53:59;7.82;;;7.18;;
2874;SDS011;1445;52.600;13.328;2022-07-25T10:56:49;7.93;;;7.30;;
2874;SDS011;1445;52.600;13.328;2022-07-25T10:59:29;9.60;;;7.32;;
2874;SDS011;1445;52.600;13.328;2022-07-25T11:01:59;14.43;;;7.55;;
2874;SDS011;1445;52.600;13.328;2022-07-25T11:04:25;8.40;;;7.50;;
2874;SDS011;1445;52.600;13.328;2022-07-25T11:06:51;8.23;;;7.43;;
2874;SDS011;1445;52.600;13.328;2022-07-25T11:11:50;7.50;;;6.80;;
2874;SDS011;1445;52.600;13.328;2022-07-25T11:14:19;8.10;;;7.30;;
2874;SDS011;1445;52.600;13.328;2022-07-25T11:16:48;8.02;;;7.32;;
2874;SDS011;1445;52.600;13.328;2022-07-25T11:19:16;8.48;;;7.68;;
2874;SDS011;1445;52.600;13.328;2022-07-25T11:21:50;7.72;;;6.88;;
2874;SDS011;1445;52.600;13.328;2022-07-25T11:29:48;7.80;;;7.15;;
2874;SDS011;1445;52.600;13.328;2022-07-25T11:32:14;8.20;;;7.43;;
2874;SDS011;1445;52.600;13.328;2022-07-25T11:34:46;7.15;;;6.55;;
2874;SDS011;1445;52.600;13.328;2022-07-25T11:37:13;8.10;;;7.00;;
2874;SDS011;1445;52.600;13.328;2022-07-25T11:39:40;7.10;;;6.40;;
2874;SDS011;1445;52.600;13.328;2022-07-25T11:42:11;8.48;;;7.28;;
2874;SDS011;1445;52.600;13.328;2022-07-25T11:44:41;7.60;;;6.88;;
2874;SDS011;1445;52.600;13.328;2022-07-25T11:47:22;9.52;;;7.00;;
2874;SDS011;1445;52.600;13.328;2022-07-25T11:49:51;8.82;;;7.43;;
2874;SDS011;1445;52.600;13.328;2022-07-25T11:52:22;8.32;;;7.47;;
2874;SDS011;1445;52.600;13.328;2022-07-25T11:54:52;9.50;;;7.15;;
2874;SDS011;1445;52.600;13.328;2022-07-25T11:57:23;7.68;;;7.07;;
2874;SDS011;1445;52.600;13.328;2022-07-25T11:59:49;7.80;;;7.05;;
2874;SDS011;1445;52.600;13.328;2022-07-25T12:02:26;10.02;;;6.88;;
2874;SDS011;1445;52.600;13.328;2022-07-25T12:05:00;7.60;;;6.90;;
2874;SDS011;1445;52.600;13.328;2022-07-25T12:12:42;10.10;;;7.28;;
2874;SDS011;1445;52.600;13.328;2022-07-25T12:15:10;7.22;;;6.63;;
2874;SDS011;1445;52.600;13.328;2022-07-25T12:17:37;7.28;;;6.68;;
2874;SDS011;1445;52.600;13.328;2022-07-25T12:20:03;7.15;;;6.47;;
2874;SDS011;1445;52.600;13.328;2022-07-25T12:22:29;7.47;;;6.78;;
2874;SDS011;1445;52.600;13.328;2022-07-25T12:24:55;8.32;;;7.03;;
2874;SDS011;1445;52.600;13.328;2022-07-25T12:27:20;8.35;;;7.10;;
2874;SDS011;1445;52.600;13.328;2022-07-25T12:29:45;8.20;;;7.25;;
2874;SDS011;1445;52.600;13.328;2022-07-25T12:32:11;8.00;;;6.47;;
2874;SDS011;1445;52.600;13.328;2022-07-25T12:34:36;7.78;;;6.50;;
2874;SDS011;1445;52.600;13.328;2022-07-25T12:37:02;7.50;;;6.90;;
2874;SDS011;1445;52.600;13.328;2022-07-25T12:39:27;7.55;;;6.88;;
2874;SDS011;1445;52.600;13.328;2022-07-25T12:41:52;6.72;;;6.22;;
2874;SDS011;1445;52.600;13.328;2022-07-25T12:44:18;8.20;;;6.63;;
2874;SDS011;1445;52.600;13.328;2022-07-25T12:46:43;7.07;;;6.47;;
2874;SDS011;1445;52.600;13.328;2022-07-25T12:49:09;7.78;;;7.03;;
2874;SDS011;1445;52.600;13.328;2022-07-25T12:51:34;7.43;;;6.82;;
2874;SDS011;1445;52.600;13.328;2022-07-25T12:54:00;7.15;;;6.43;;
2874;SDS011;1445;52.600;13.328;2022-07-25T12:56:25;7.60;;;6.93;;
2874;SDS011;1445;52.600;13.328;2022-07-25T12:58:51;7.82;;;7.10;;
2874;SDS011;1445;52.600;13.328;2022-07-25T13:01:16;7.28;;;6.57;;
2874;SDS011;1445;52.600;13.328;2022-07-25T13:03:41;7.20;;;6.60;;
2874;SDS011;1445;52.600;13.328;2022-07-25T13:06:07;8.27;;;6.57;;
2874;SDS011;1445;52.600;13.328;2022-07-25T13:08:32;7.53;;;6.90;;
2874;SDS011;1445;52.600;13.328;2022-07-25T13:11:01;22.08;;;7.47;;
2874;SDS011;1445;52.600;13.328;2022-07-25T13:13:27;7.53;;;6.82;;
2874;SDS011;1445;52.600;13.328;2022-07-25T13:15:53;7.30;;;6.50;;
2874;SDS011;1445;52.600;13.328;2022-07-25T13:18:18;7.47;;;6.80;;
2874;SDS011;1445;52.600;13.328;2022-07-25T13:20:44;7.68;;;6.90;;
2874;SDS011;1445;52.600;13.328;2022-07-25T13:23:09;7.53;;;6.78;;
2874;SDS011;1445;52.600;13.328;2022-07-25T13:25:35;7.32;;;6.63;;
2874;SDS011;1445;52.600;13.328;2022-07-25T13:28:01;7.25;;;6.65;;
2874;SDS011;1445;52.600;13.328;2022-07-25T13:30:28;7.88;;;7.05;;
2874;SDS011;1445;52.600;13.328;2022-07-25T13:32:54;8.07;;;7.38;;
2874;SDS011;1445;52.600;13.328;2022-07-25T13:35:19;6.97;;;6.45;;
2874;SDS011;1445;52.600;13.328;2022-07-25T13:37:45;7.55;;;6.85;;
2874;SDS011;1445;52.600;13.328;2022-07-25T13:40:11;8.05;;;7.25;;
2874;SDS011;1445;52.600;13.328;2022-07-25T13:42:36;7.93;;;7.10;;
2874;SDS011;1445;52.600;13.328;2022-07-25T13:45:02;8.75;;;7.03;;
2874;SDS011;1445;52.600;13.328;2022-07-25T13:47:30;7.75;;;6.95;;
2874;SDS011;1445;52.600;13.328;2022-07-25T13:49:56;7.75;;;7.03;;
2874;SDS011;1445;52.600;13.328;2022-07-25T13:52:22;7.47;;;6.82;;
2874;SDS011;1445;52.600;13.328;2022-07-25T13:54:47;7.70;;;6.88;;
2874;SDS011;1445;52.600;13.328;2022-07-25T13:57:13;9.18;;;6.97;;
2874;SDS011;1445;52.600;13.328;2022-07-25T13:59:38;7.35;;;6.65;;
2874;SDS011;1445;52.600;13.328;2022-07-25T14:02:03;8.73;;;6.75;;
2874;SDS011;1445;52.600;13.328;2022-07-25T14:04:29;6.82;;;6.22;;
2874;SDS011;1445;52.600;13.328;2022-07-25T14:06:54;7.25;;;6.55;;
2874;SDS011;1445;52.600;13.328;2022-07-25T14:09:23;8.00;;;6.38;;
2874;SDS011;1445;52.600;13.328;2022-07-25T14:11:49;9.32;;;6.90;;
2874;SDS011;1445;52.600;13.328;2022-07-25T14:14:15;7.30;;;6.63;;
2874;SDS011;1445;52.600;13.328;2022-07-25T14:16:41;8.10;;;6.63;;
2874;SDS011;1445;52.600;13.328;2022-07-25T14:19:07;7.25;;;6.65;;
2874;SDS011;1445;52.600;13.328;2022-07-25T14:21:32;11.93;;;6.95;;
2874;SDS011;1445;52.600;13.328;2022-07-25T14:23:58;7.22;;;6.53;;
2874;SDS011;1445;52.600;13.328;2022-07-25T14:26:23;7.50;;;6.90;;
2874;SDS011;1445;52.600;13.328;2022-07-25T14:28:49;7.28;;;6.32;;
2874;SDS011;1445;52.600;13.328;2022-07-25T14:31:15;7.30;;;6.70;;
2874;SDS011;1445;52.600;13.328;2022-07-25T14:33:41;7.10;;;6.50;;
2874;SDS011;1445;52.600;13.328;2022-07-25T14:36:07;7.32;;;6.70;;
2874;SDS011;1445;52.600;13.328;2022-07-25T14:38:33;8.90;;;6.70;;
2874;SDS011;1445;52.600;13.328;2022-07-25T14:40:59;7.00;;;6.30;;
2874;SDS011;1445;52.600;13.328;2022-07-25T14:43:25;9.80;;;7.47;;
2874;SDS011;1445;52.600;13.328;2022-07-25T14:45:50;8.20;;;6.80;;
2874;SDS011;1445;52.600;13.328;2022-07-25T14:48:15;7.30;;;6.57;;
2874;SDS011;1445;52.600;13.328;2022-07-25T14:50:41;7.03;;;6.38;;
2874;SDS011;1445;52.600;13.328;2022-07-25T14:53:06;7.35;;;6.75;;
2874;SDS011;1445;52.600;13.328;2022-07-25T14:55:32;7.43;;;6.78;;
2874;SDS011;1445;52.600;13.328;2022-07-25T14:57:57;7.50;;;6.80;;
2874;SDS011;1445;52.600;13.328;2022-07-25T15:00:26;7.15;;;6.55;;
2874;SDS011;1445;52.600;13.328;2022-07-25T15:02:52;7.45;;;6.85;;
2874;SDS011;1445;52.600;13.328;2022-07-25T15:05:18;7.75;;;6.40;;
2874;SDS011;1445;52.600;13.328;2022-07-25T15:07:43;6.35;;;5.75;;
2874;SDS011;1445;52.600;13.328;2022-07-25T15:10:08;7.75;;;6.95;;
2874;SDS011;1445;52.600;13.328;2022-07-25T15:12:34;7.35;;;6.65;;
2874;SDS011;1445;52.600;13.328;2022-07-25T15:14:59;7.45;;;6.82;;
2874;SDS011;1445;52.600;13.328;2022-07-25T15:17:25;8.65;;;6.35;;
2874;SDS011;1445;52.600;13.328;2022-07-25T15:19:50;7.47;;;6.78;;
2874;SDS011;1445;52.600;13.328;2022-07-25T15:22:16;7.15;;;6.22;;
2874;SDS011;1445;52.600;13.328;2022-07-25T15:24:41;10.68;;;6.93;;
2874;SDS011;1445;52.600;13.328;2022-07-25T15:27:06;6.85;;;6.18;;
2874;SDS011;1445;52.600;13.328;2022-07-25T15:29:33;6.40;;;5.90;;